createdAt,value
2019-04-16T00:00:55.508Z,4.96
2019-04-16T00:04:36.548Z,5.10
2019-04-16T00:08:26.689Z,5.04
2019-04-16T00:11:44.449Z,4.91
2019-04-16T00:14:52.240Z,5.05
2019-04-16T00:18:08.889Z,4.86
2019-04-16T00:21:34.019Z,4.87
2019-04-16T00:24:58.458Z,4.81
2019-04-16T00:28:21.131Z,4.78
2019-04-16T00:31:28.649Z,4.74
2019-04-16T00:34:45.486Z,4.79
2019-04-16T00:37:51.683Z,4.63
2019-04-16T00:41:01.326Z,4.48
2019-04-16T00:44:18.083Z,4.51
2019-04-16T00:47:35.150Z,4.50
2019-04-16T00:50:51.611Z,4.41
2019-04-16T00:53:59.127Z,4.49
2019-04-16T00:57:18.038Z,4.49
2019-04-16T01:00:34.095Z,4.38
2019-04-16T01:03:50.882Z,4.31
2019-04-16T01:06:58.020Z,4.32
2019-04-16T01:10:05.521Z,4.26
2019-04-16T01:13:24.551Z,4.43
2019-04-16T01:16:40.568Z,4.31
2019-04-16T01:19:57.255Z,4.35
2019-04-16T01:23:04.634Z,4.18
2019-04-16T01:26:21.239Z,4.24
2019-04-16T01:29:28.394Z,4.22
2019-04-16T01:33:00.932Z,4.25
2019-04-16T01:36:20.306Z,4.09
2019-04-16T01:39:29.271Z,4.06
2019-04-16T01:42:36.545Z,4.07
2019-04-16T01:45:43.851Z,4.05
2019-04-16T01:48:51.220Z,4.01
2019-04-16T01:51:58.554Z,3.95
2019-04-16T01:55:05.113Z,3.93
2019-04-16T01:58:12.355Z,3.95
2019-04-16T02:01:19.739Z,3.94
2019-04-16T02:04:26.879Z,3.88
2019-04-16T02:07:34.186Z,3.81
2019-04-16T02:10:41.400Z,3.67
2019-04-16T02:13:48.611Z,3.91
2019-04-16T02:16:56.738Z,3.81
2019-04-16T02:20:13.336Z,4.01
2019-04-16T02:23:30.089Z,4.03
2019-04-16T02:26:46.787Z,3.88
2019-04-16T02:29:54.025Z,3.85
2019-04-16T02:33:01.348Z,3.92
2019-04-16T02:36:18.473Z,3.83
2019-04-16T02:39:47.609Z,3.85
2019-04-16T02:42:53.314Z,3.99
2019-04-16T02:45:59.631Z,3.84
2019-04-16T02:49:06.879Z,3.87
2019-04-16T02:52:23.277Z,3.80
2019-04-16T02:55:42.917Z,3.81
2019-04-16T02:58:54.092Z,3.83
2019-04-16T03:02:23.101Z,3.83
2019-04-16T03:05:35.023Z,3.85
2019-04-16T03:08:55.564Z,3.76
2019-04-16T03:12:03.046Z,3.73
2019-04-16T03:15:10.524Z,3.70
2019-04-16T03:18:19.323Z,3.66
2019-04-16T03:21:27.526Z,3.67
2019-04-16T03:24:37.539Z,3.69
2019-04-16T03:27:54.378Z,3.75
2019-04-16T03:31:07.349Z,3.67
2019-04-16T03:34:11.350Z,3.71
2019-04-16T03:37:18.476Z,3.74
2019-04-16T03:40:26.090Z,3.69
2019-04-16T03:43:42.634Z,3.82
2019-04-16T03:46:50.045Z,3.77
2019-04-16T03:50:07.504Z,3.81
2019-04-16T03:53:29.945Z,3.76
2019-04-16T03:56:37.247Z,3.66
2019-04-16T03:59:53.955Z,3.79
2019-04-16T04:03:01.330Z,3.90
2019-04-16T04:06:17.932Z,3.81
2019-04-16T04:09:34.719Z,3.75
2019-04-16T04:12:42.608Z,3.65
2019-04-16T04:16:01.648Z,3.82
2019-04-16T04:19:18.972Z,3.64
2019-04-16T04:22:26.654Z,3.68
2019-04-16T04:25:42.976Z,3.70
2019-04-16T04:28:51.589Z,3.55
2019-04-16T04:32:08.520Z,3.72
2019-04-16T04:35:20.371Z,3.60
2019-04-16T04:38:37.418Z,3.64
2019-04-16T04:41:43.019Z,3.77
2019-04-16T04:44:50.232Z,3.69
2019-04-16T04:48:11.031Z,3.73
2019-04-16T04:51:26.272Z,3.80
2019-04-16T04:54:33.847Z,3.87
2019-04-16T04:57:50.112Z,3.74
2019-04-16T05:00:57.504Z,3.92
2019-04-16T05:04:26.504Z,3.89
2019-04-16T05:07:33.627Z,3.88
2019-04-16T05:10:43.422Z,3.82
2019-04-16T05:13:49.848Z,3.82
2019-04-16T05:16:57.176Z,3.78
2019-04-16T05:20:04.603Z,3.91
2019-04-16T05:23:24.905Z,3.94
2019-04-16T05:26:39.875Z,3.88
2019-04-16T05:29:56.576Z,3.89
2019-04-16T05:33:13.477Z,3.96
2019-04-16T05:36:21.691Z,4.06
2019-04-16T05:39:29.281Z,4.11
2019-04-16T05:42:36.731Z,4.06
2019-04-16T05:45:42.330Z,4.04
2019-04-16T05:48:58.899Z,4.14
2019-04-16T05:52:06.243Z,4.30
2019-04-16T05:55:34.296Z,4.35
2019-04-16T05:59:10.607Z,4.27
2019-04-16T06:02:26.422Z,4.23
2019-04-16T06:05:33.543Z,4.33
2019-04-16T06:08:41.691Z,4.32
2019-04-16T06:11:48.904Z,4.45
2019-04-16T06:15:05.503Z,4.42
2019-04-16T06:18:29.718Z,4.50
2019-04-16T06:22:02.059Z,4.43
2019-04-16T06:25:41.444Z,4.64
2019-04-16T06:28:55.161Z,4.56
2019-04-16T06:32:48.672Z,4.73
2019-04-16T06:36:01.900Z,4.81
2019-04-16T06:39:42.466Z,4.88
2019-04-16T06:43:12.908Z,4.92
2019-04-16T06:46:40.519Z,4.79
2019-04-16T06:50:05.755Z,4.92
2019-04-16T06:53:30.989Z,4.99
2019-04-16T06:56:42.379Z,4.99
2019-04-16T07:00:14.450Z,5.21
2019-04-16T07:03:51.344Z,5.35
2019-04-16T07:07:39.901Z,5.31
2019-04-16T07:11:00.942Z,5.38
2019-04-16T07:14:21.964Z,5.51
2019-04-16T07:17:40.480Z,5.48
2019-04-16T07:20:57.061Z,5.57
2019-04-16T07:24:04.319Z,5.65
2019-04-16T07:27:10.858Z,5.78
2019-04-16T07:30:38.659Z,5.79
2019-04-16T07:34:24.952Z,5.75
2019-04-16T07:38:11.525Z,5.83
2019-04-16T07:42:07.767Z,6.00
2019-04-16T07:45:35.262Z,5.91
2019-04-16T07:49:04.699Z,6.14
2019-04-16T07:52:31.013Z,6.16
2019-04-16T07:55:49.455Z,6.14
2019-04-16T07:59:00.221Z,6.28
2019-04-16T08:02:05.877Z,6.47
2019-04-16T08:05:12.151Z,6.45
2019-04-16T08:08:28.787Z,6.52
2019-04-16T08:11:45.586Z,6.73
2019-04-16T08:14:52.227Z,6.77
2019-04-16T08:17:59.463Z,6.83
2019-04-16T08:21:12.104Z,6.84
2019-04-16T08:24:24.435Z,6.87
2019-04-16T08:27:29.371Z,6.80
2019-04-16T08:30:39.430Z,6.94
2019-04-16T08:33:45.603Z,6.97
2019-04-16T08:37:02.445Z,7.18
2019-04-16T08:40:19.196Z,7.23
2019-04-16T08:43:35.892Z,7.21
2019-04-16T08:46:43.221Z,7.30
2019-04-16T08:49:59.992Z,7.33
2019-04-16T08:53:16.694Z,7.51
2019-04-16T08:56:23.998Z,7.59
2019-04-16T08:59:42.601Z,7.93
2019-04-16T09:02:49.639Z,7.84
2019-04-16T09:06:06.751Z,7.90
2019-04-16T09:09:28.850Z,8.23
2019-04-16T09:12:40.672Z,8.26
2019-04-16T09:15:44.071Z,8.35
2019-04-16T09:18:59.855Z,8.22
2019-04-16T09:22:20.649Z,8.42
2019-04-16T09:25:52.457Z,8.53
2019-04-16T09:29:24.908Z,8.66
2019-04-16T09:32:52.811Z,8.73
2019-04-16T09:36:42.281Z,8.75
2019-04-16T09:40:17.569Z,8.87
2019-04-16T09:43:24.946Z,9.12
2019-04-16T09:46:50.463Z,9.28
2019-04-16T09:49:41.248Z,9.41
2019-04-16T09:52:48.419Z,9.39
2019-04-16T09:55:55.736Z,9.42
2019-04-16T09:59:05.907Z,9.43
2019-04-16T10:02:16.896Z,9.61
2019-04-16T10:05:26.509Z,9.65
2019-04-16T10:08:44.931Z,9.75
2019-04-16T10:12:01.033Z,10.08
2019-04-16T10:15:17.632Z,9.98
2019-04-16T10:18:35.131Z,10.08
2019-04-16T10:21:43.278Z,10.09
2019-04-16T10:25:17.787Z,10.16
2019-04-16T10:28:37.780Z,10.36
2019-04-16T10:31:55.183Z,10.61
2019-04-16T10:35:00.738Z,10.59
2019-04-16T10:38:24.169Z,10.56
2019-04-16T10:41:41.904Z,10.59
2019-04-16T10:44:59.244Z,10.74
2019-04-16T10:48:28.751Z,10.90
2019-04-16T10:51:54.971Z,11.13
2019-04-16T10:55:36.611Z,11.19
2019-04-16T10:58:59.866Z,11.38
2019-04-16T11:02:28.835Z,11.42
2019-04-16T11:05:42.337Z,11.42
2019-04-16T11:08:49.608Z,11.62
2019-04-16T11:11:56.888Z,11.58
2019-04-16T11:15:04.241Z,11.54
2019-04-16T11:18:11.728Z,11.87
2019-04-16T11:21:19.030Z,11.78
2019-04-16T11:24:25.196Z,12.19
2019-04-16T11:27:43.738Z,12.19
2019-04-16T11:31:03.026Z,12.27
2019-04-16T11:34:11.548Z,12.43
2019-04-16T11:37:18.831Z,12.49
2019-04-16T11:40:26.065Z,12.77
2019-04-16T11:43:33.445Z,12.75
2019-04-16T11:46:40.758Z,12.70
2019-04-16T11:49:48.010Z,12.72
2019-04-16T11:52:58.400Z,13.20
2019-04-16T11:56:04.585Z,13.24
2019-04-16T11:59:21.264Z,13.57
2019-04-16T12:02:51.008Z,13.68
2019-04-16T12:06:27.752Z,13.93
2019-04-16T12:09:34.356Z,14.19
2019-04-16T12:13:32.716Z,15.07
2019-04-16T12:17:05.421Z,15.96
2019-04-16T12:20:22.870Z,17.03
2019-04-16T12:23:43.429Z,17.43
2019-04-16T12:27:12.954Z,18.01
2019-04-16T12:30:59.067Z,18.09
2019-04-16T12:34:30.198Z,18.72
2019-04-16T12:37:55.283Z,19.31
2019-04-16T12:41:40.780Z,20.53
2019-04-16T12:45:00.717Z,20.44
2019-04-16T12:48:42.347Z,20.05
2019-04-16T12:52:40.723Z,20.59
2019-04-16T12:56:07.742Z,21.55
2019-04-16T12:59:23.020Z,20.52
2019-04-16T13:03:04.381Z,21.57
2019-04-16T13:06:16.144Z,21.75
2019-04-16T13:09:53.926Z,20.85
2019-04-16T13:13:18.940Z,20.38
2019-04-16T13:16:52.760Z,22.66
2019-04-16T13:20:29.534Z,22.89
2019-04-16T13:23:41.299Z,22.90
2019-04-16T13:27:16.635Z,22.71
2019-04-16T13:30:24.294Z,22.12
2019-04-16T13:33:31.495Z,20.69
2019-04-16T13:36:38.930Z,21.63
2019-04-16T13:40:20.807Z,21.56
2019-04-16T13:43:33.791Z,22.07
2019-04-16T13:47:03.601Z,20.46
2019-04-16T13:50:17.730Z,20.79
2019-04-16T13:54:00.330Z,21.61
2019-04-16T13:57:13.610Z,21.53
2019-04-16T14:00:43.213Z,21.81
2019-04-16T14:03:48.763Z,21.63
2019-04-16T14:06:55.987Z,20.51
2019-04-16T14:10:03.497Z,20.62
2019-04-16T14:13:13.476Z,21.07
2019-04-16T14:16:19.627Z,21.49
2019-04-16T14:19:26.855Z,21.48
2019-04-16T14:22:43.833Z,21.55
2019-04-16T14:26:00.746Z,21.53
2019-04-16T14:29:17.792Z,21.39
2019-04-16T14:32:34.303Z,20.55
2019-04-16T14:35:51.221Z,20.58
2019-04-16T14:39:19.718Z,20.68
2019-04-16T14:42:27.189Z,20.50
2019-04-16T14:45:58.246Z,20.68
2019-04-16T14:49:08.158Z,20.96
2019-04-16T14:52:15.393Z,20.46
2019-04-16T14:55:59.833Z,20.70
2019-04-16T14:59:10.470Z,20.55
2019-04-16T15:02:40.463Z,20.76
2019-04-16T15:06:01.403Z,20.90
2019-04-16T15:09:33.464Z,20.11
2019-04-16T15:13:08.522Z,20.76
2019-04-16T15:17:12.214Z,20.06
2019-04-16T15:20:48.826Z,20.83
2019-04-16T15:24:25.697Z,20.28
2019-04-16T15:28:03.943Z,20.12
2019-04-16T15:31:43.424Z,20.29
2019-04-16T15:34:50.956Z,20.06
2019-04-16T15:38:02.956Z,19.79
2019-04-16T15:41:28.105Z,19.87
2019-04-16T15:48:38.409Z,19.22
2019-04-16T15:52:04.687Z,18.88
2019-04-16T15:55:30.950Z,18.82
2019-04-16T15:59:03.211Z,18.58
2019-04-16T16:02:47.166Z,17.95
2019-04-16T16:05:59.672Z,17.81
2019-04-16T16:09:31.308Z,17.92
2019-04-16T16:12:38.531Z,17.42
2019-04-16T16:15:45.873Z,17.76
2019-04-16T16:18:53.165Z,17.69
2019-04-16T16:22:00.463Z,17.18
2019-04-16T16:25:17.283Z,17.07
2019-04-16T16:28:34.099Z,16.89
2019-04-16T16:31:41.347Z,16.98
2019-04-16T16:34:58.140Z,16.86
2019-04-16T16:38:15.018Z,16.96
2019-04-16T16:41:22.382Z,16.59
2019-04-16T16:44:39.045Z,16.51
2019-04-16T16:47:46.269Z,16.32
2019-04-16T16:50:53.547Z,16.26
2019-04-16T16:54:16.763Z,16.16
2019-04-16T16:57:41.995Z,16.25
2019-04-16T17:01:01.679Z,16.21
2019-04-16T17:04:31.963Z,15.86
2019-04-16T17:07:39.336Z,15.78
2019-04-16T17:10:46.645Z,15.68
2019-04-16T17:14:03.522Z,15.52
2019-04-16T17:17:20.264Z,15.23
2019-04-16T17:20:38.403Z,15.19
2019-04-16T17:23:55.630Z,15.19
2019-04-16T17:27:12.323Z,15.29
2019-04-16T17:30:19.535Z,15.13
2019-04-16T17:33:36.339Z,15.00
2019-04-16T17:36:53.611Z,14.88
2019-04-16T17:40:08.741Z,14.85
2019-04-16T17:43:41.588Z,14.37
2019-04-16T17:47:19.453Z,14.65
2019-04-16T17:50:30.403Z,14.35
2019-04-16T17:53:46.372Z,14.31
2019-04-16T17:57:10.275Z,14.19
2019-04-16T18:00:34.699Z,14.02
2019-04-16T18:04:10.426Z,14.23
2019-04-16T18:07:55.013Z,14.30
2019-04-16T18:11:10.032Z,13.73
2019-04-16T18:14:48.771Z,13.52
2019-04-16T18:18:06.781Z,13.80
2019-04-16T18:21:55.773Z,13.57
2019-04-16T18:25:37.933Z,13.61
2019-04-16T18:28:54.475Z,13.23
2019-04-16T18:32:30.853Z,13.46
2019-04-16T18:36:14.171Z,13.28
2019-04-16T18:39:31.111Z,13.30
2019-04-16T18:42:51.263Z,13.11
2019-04-16T18:46:21.468Z,13.29
2019-04-16T18:49:46.885Z,13.06
2019-04-16T18:52:54.161Z,12.95
2019-04-16T18:56:01.421Z,12.70
2019-04-16T18:59:08.652Z,12.66
2019-04-16T19:02:15.880Z,12.55
2019-04-16T19:05:23.243Z,12.30
2019-04-16T19:08:41.719Z,12.35
2019-04-16T19:11:49.462Z,12.14
2019-04-16T19:15:06.206Z,12.12
2019-04-16T19:18:19.625Z,11.99
2019-04-16T19:21:31.635Z,11.77
2019-04-16T19:24:38.762Z,11.67
2019-04-16T19:27:48.865Z,11.55
2019-04-16T19:30:55.505Z,11.49
2019-04-16T19:34:09.047Z,11.43
2019-04-16T19:37:11.724Z,11.41
2019-04-16T19:40:19.622Z,11.29
2019-04-16T19:43:28.417Z,11.30
2019-04-16T19:46:45.448Z,11.12
2019-04-16T19:49:54.048Z,11.04
2019-04-16T19:53:01.583Z,10.84
2019-04-16T19:56:18.652Z,10.85
2019-04-16T19:59:26.831Z,10.56
2019-04-16T20:02:34.104Z,10.68
2019-04-16T20:05:41.351Z,10.80
2019-04-16T20:08:58.052Z,10.74
2019-04-16T20:12:05.416Z,10.51
2019-04-16T20:15:28.039Z,10.42
2019-04-16T20:18:49.989Z,10.56
2019-04-16T20:21:53.617Z,10.37
2019-04-16T20:25:01.238Z,10.51
2019-04-16T20:28:17.626Z,10.56
2019-04-16T20:31:25.163Z,10.51
2019-04-16T20:34:42.366Z,10.47
2019-04-16T20:38:00.122Z,10.22
2019-04-16T20:41:07.330Z,10.45
2019-04-16T20:44:24.146Z,10.51
2019-04-16T20:47:40.871Z,10.47
2019-04-16T20:50:52.755Z,9.96
2019-04-16T20:54:06.603Z,10.17
2019-04-16T20:57:25.647Z,10.22
2019-04-16T21:00:44.709Z,10.07
2019-04-16T21:04:04.664Z,9.64
2019-04-16T21:07:07.137Z,9.65
2019-04-16T21:10:14.581Z,9.69
2019-04-16T21:13:21.802Z,9.72
2019-04-16T21:16:33.471Z,9.80
2019-04-16T21:19:48.089Z,9.93
2019-04-16T21:22:57.522Z,9.75
2019-04-16T21:26:04.262Z,9.56
2019-04-16T21:29:36.596Z,9.64
2019-04-16T21:33:21.076Z,9.60
2019-04-16T21:36:37.952Z,9.56
2019-04-16T21:39:52.906Z,9.42
2019-04-16T21:43:00.195Z,9.56
2019-04-16T21:46:07.705Z,9.46
2019-04-16T21:49:15.123Z,9.41
2019-04-16T21:52:23.117Z,9.25
2019-04-16T21:55:32.879Z,9.33
2019-04-16T21:58:39.435Z,9.21
2019-04-16T22:01:46.737Z,9.20
2019-04-16T22:04:53.317Z,8.79
2019-04-16T22:08:09.893Z,9.12
2019-04-16T22:11:26.635Z,9.20
2019-04-16T22:14:43.430Z,8.75
2019-04-16T22:17:50.667Z,8.61
2019-04-16T22:20:57.975Z,9.09
2019-04-16T22:24:14.643Z,9.12
2019-04-16T22:27:21.866Z,8.93
2019-04-16T22:30:29.226Z,9.06
2019-04-16T22:33:45.887Z,9.12
2019-04-16T22:37:02.671Z,9.17
2019-04-16T22:40:23.661Z,8.91
2019-04-16T22:43:48.710Z,9.06
2019-04-16T22:46:59.882Z,8.73
2019-04-16T22:50:27.008Z,8.76
2019-04-16T22:53:34.237Z,8.69
2019-04-16T22:57:08.346Z,8.80
2019-04-16T23:00:26.278Z,8.78
2019-04-16T23:03:33.574Z,8.70
2019-04-16T23:06:40.846Z,8.42
2019-04-16T23:09:48.689Z,8.32
2019-04-16T23:13:00.326Z,8.38
2019-04-16T23:16:15.834Z,8.54
2019-04-16T23:19:32.526Z,8.53
2019-04-16T23:22:39.758Z,8.50
2019-04-16T23:25:47.003Z,8.41
2019-04-16T23:28:54.150Z,8.49
2019-04-16T23:32:11.054Z,8.36
2019-04-16T23:35:27.727Z,8.49
2019-04-16T23:38:34.958Z,8.35
2019-04-16T23:41:42.246Z,8.21
2019-04-16T23:45:08.963Z,8.16
2019-04-16T23:49:04.237Z,8.02
2019-04-16T23:52:17.670Z,8.21
2019-04-16T23:55:51.906Z,8.30
2019-04-16T23:59:18.208Z,8.05
